createdAt,value
2023-01-18T00:02:24.751Z,17.20
2023-01-18T00:04:53.882Z,17.20
2023-01-18T00:07:23.142Z,17.10
2023-01-18T00:09:53.422Z,17.20
2023-01-18T00:12:22.822Z,17.10
2023-01-18T00:14:51.809Z,17.10
2023-01-18T00:17:21.397Z,17.10
2023-01-18T00:19:50.449Z,17.10
2023-01-18T00:22:19.585Z,17.00
2023-01-18T00:24:48.422Z,17.00
2023-01-18T00:27:17.835Z,17.00
2023-01-18T00:29:46.810Z,17.00
2023-01-18T00:32:17.300Z,17.00
2023-01-18T00:34:49.193Z,17.00
2023-01-18T00:37:19.619Z,16.90
2023-01-18T00:39:48.732Z,16.90
2023-01-18T00:42:36.151Z,16.90
2023-01-18T00:45:05.520Z,16.90
2023-01-18T00:47:34.689Z,16.90
2023-01-18T00:50:03.770Z,16.90
2023-01-18T00:52:35.011Z,16.80
2023-01-18T00:55:05.270Z,16.80
2023-01-18T00:57:34.565Z,16.80
2023-01-18T01:00:03.748Z,16.80
2023-01-18T01:02:32.958Z,16.80
2023-01-18T01:05:20.441Z,16.80
2023-01-18T01:07:50.183Z,16.70
2023-01-18T01:10:19.181Z,16.70
2023-01-18T01:13:06.680Z,16.70
2023-01-18T01:18:42.961Z,16.70
2023-01-18T01:21:30.332Z,16.70
2023-01-18T01:24:18.248Z,16.60
2023-01-18T01:26:47.032Z,16.60
2023-01-18T01:29:16.699Z,16.60
2023-01-18T01:31:45.663Z,16.60
2023-01-18T01:34:15.133Z,16.60
2023-01-18T01:36:43.894Z,16.60
2023-01-18T01:39:13.480Z,16.60
2023-01-18T01:41:42.357Z,16.60
2023-01-18T01:44:20.697Z,16.60
2023-01-18T01:47:05.100Z,16.50
2023-01-18T01:49:44.166Z,16.50
2023-01-18T01:52:20.501Z,16.50
2023-01-18T01:55:12.302Z,16.50
2023-01-18T01:57:51.890Z,16.50
2023-01-18T02:00:27.691Z,16.40
2023-01-18T02:03:02.466Z,16.40
2023-01-18T02:05:32.731Z,16.40
2023-01-18T02:08:02.505Z,16.40
2023-01-18T02:10:31.920Z,16.40
2023-01-18T02:13:00.834Z,16.40
2023-01-18T02:15:44.771Z,16.40
2023-01-18T02:18:25.606Z,16.40
2023-01-18T02:21:39.940Z,16.40
2023-01-18T02:24:46.248Z,16.40
2023-01-18T02:27:34.959Z,16.40
2023-01-18T02:30:12.159Z,16.30
2023-01-18T02:33:14.141Z,16.30
2023-01-18T02:35:50.927Z,16.30
2023-01-18T02:38:47.951Z,16.30
2023-01-18T02:45:05.010Z,16.30
2023-01-18T03:36:36.939Z,16.20
2023-01-18T03:39:13.359Z,16.10
2023-01-18T03:41:45.539Z,16.10
2023-01-18T03:44:29.864Z,16.10
2023-01-18T03:46:58.991Z,16.10
2023-01-18T03:49:29.545Z,16.10
2023-01-18T03:52:31.276Z,16.00
2023-01-18T05:57:42.680Z,16.10
2023-01-18T06:00:13.139Z,17.80
2023-01-18T06:02:41.775Z,17.80
2023-01-18T06:05:12.177Z,17.80
2023-01-18T06:07:42.702Z,17.90
2023-01-18T06:10:12.603Z,18.00
2023-01-18T06:12:41.771Z,18.00
2023-01-18T06:15:12.764Z,18.00
2023-01-18T06:17:41.548Z,18.00
2023-01-18T06:20:12.798Z,18.10
2023-01-18T06:22:41.557Z,18.10
2023-01-18T06:25:10.541Z,18.10
2023-01-18T06:27:39.763Z,18.10
2023-01-18T06:30:11.925Z,18.10
2023-01-18T06:32:40.424Z,18.10
2023-01-18T06:35:09.463Z,18.00
2023-01-18T06:37:38.083Z,18.00
2023-01-18T06:40:09.832Z,17.90
2023-01-18T06:42:39.322Z,17.90
2023-01-18T06:45:09.151Z,17.80
2023-01-18T06:47:37.761Z,17.80
2023-01-18T06:50:06.971Z,17.70
2023-01-18T06:52:35.709Z,17.70
2023-01-18T06:55:05.090Z,17.60
2023-01-18T06:57:33.642Z,17.60
2023-01-18T07:00:06.262Z,17.50
2023-01-18T07:02:35.933Z,17.50
2023-01-18T07:05:05.743Z,17.50
2023-01-18T07:07:34.413Z,17.50
2023-01-18T07:10:03.299Z,17.40
2023-01-18T07:12:32.041Z,17.40
2023-01-18T07:15:09.913Z,17.30
2023-01-18T07:17:50.755Z,17.40
2023-01-18T07:20:20.136Z,17.30
2023-01-18T07:22:52.948Z,17.30
2023-01-18T07:25:22.853Z,17.20
2023-01-18T07:27:51.583Z,17.20
2023-01-18T07:30:20.622Z,17.10
2023-01-18T07:32:51.202Z,17.10
2023-01-18T07:35:24.281Z,17.10
2023-01-18T07:37:55.700Z,17.10
2023-01-18T12:02:36.745Z,16.10
2023-01-18T12:05:41.123Z,18.30
2023-01-18T12:08:27.733Z,18.30
2023-01-18T12:11:14.849Z,18.20
2023-01-18T12:14:00.134Z,18.20
2023-01-18T12:17:13.484Z,18.20
2023-01-18T12:20:25.976Z,18.20
2023-01-18T12:23:28.511Z,18.00
2023-01-18T12:26:30.135Z,17.90
2023-01-18T12:29:50.298Z,17.90
2023-01-18T12:32:42.707Z,17.90
2023-01-18T12:35:24.018Z,17.80
2023-01-18T12:38:19.976Z,17.80
2023-01-18T12:41:10.616Z,17.80
2023-01-18T12:44:08.701Z,17.80
2023-01-18T12:46:46.360Z,17.70
2023-01-18T12:49:23.555Z,17.70
2023-01-18T12:52:09.195Z,17.80
2023-01-18T12:54:57.108Z,17.80
2023-01-18T12:57:27.368Z,17.80
2023-01-18T13:00:23.377Z,17.90
2023-01-18T13:02:56.926Z,17.90
2023-01-18T13:05:52.550Z,17.90
2023-01-18T13:08:47.443Z,18.00
2023-01-18T13:11:42.296Z,18.00
2023-01-18T13:14:25.938Z,18.10
2023-01-18T13:33:13.741Z,18.10
2023-01-18T13:36:14.324Z,17.80
2023-01-18T13:38:55.212Z,17.70
2023-01-18T13:41:29.604Z,17.70
2023-01-18T13:44:44.614Z,17.60
2023-01-18T13:47:46.159Z,17.60
2023-01-18T13:50:40.005Z,17.50
2023-01-18T13:53:14.878Z,17.50
2023-01-18T13:55:55.672Z,17.50
2023-01-18T13:58:30.023Z,17.50
2023-01-18T14:01:03.909Z,17.50
2023-01-18T14:03:44.256Z,17.60
2023-01-18T14:06:24.052Z,17.60
2023-01-18T14:09:05.510Z,17.60
2023-01-18T14:11:38.401Z,17.60
2023-01-18T14:14:27.277Z,17.70
2023-01-18T14:17:17.188Z,17.80
2023-01-18T14:19:48.633Z,17.80
2023-01-18T14:22:26.090Z,17.90
2023-01-18T14:25:40.050Z,17.90
2023-01-18T14:28:18.343Z,17.90
2023-01-18T14:30:47.355Z,17.80
2023-01-18T14:33:39.812Z,17.80
2023-01-18T14:36:24.765Z,17.80
2023-01-18T14:39:17.923Z,17.70
2023-01-18T14:41:49.731Z,17.70
2023-01-18T14:44:24.661Z,17.70
2023-01-18T14:46:56.899Z,17.60
2023-01-18T14:49:31.299Z,17.60
2023-01-18T14:52:00.098Z,17.50
2023-01-18T14:54:28.596Z,17.50
2023-01-18T14:57:05.676Z,17.50
2023-01-18T14:59:34.393Z,17.40
2023-01-18T15:02:16.613Z,17.40
2023-01-18T15:04:46.980Z,17.40
2023-01-18T15:07:27.720Z,17.30
2023-01-18T15:09:56.176Z,17.30
2023-01-18T15:12:31.053Z,17.30
2023-01-18T15:15:25.237Z,17.30
2023-01-18T15:22:56.020Z,17.20
2023-01-18T15:25:27.629Z,17.40
2023-01-18T15:28:01.952Z,17.50
2023-01-18T15:30:35.216Z,17.50
2023-01-18T15:33:04.310Z,17.60
2023-01-18T15:35:33.153Z,17.70
2023-01-18T15:38:05.214Z,17.70
2023-01-18T15:40:33.759Z,17.80
2023-01-18T15:43:09.576Z,17.80
2023-01-18T15:45:40.568Z,17.80
2023-01-18T15:48:13.497Z,17.80
2023-01-18T15:50:53.980Z,17.80
2023-01-18T15:53:39.930Z,17.80
2023-01-18T15:56:14.913Z,17.70
2023-01-18T15:58:51.709Z,17.70
2023-01-18T16:01:28.208Z,17.70
2023-01-18T16:11:54.724Z,17.50
2023-01-18T16:14:38.570Z,17.40
2023-01-18T16:17:18.539Z,17.40
2023-01-18T16:19:57.959Z,17.40
2023-01-18T16:22:36.562Z,17.40
2023-01-18T16:25:21.149Z,17.40
2023-01-18T16:27:54.342Z,17.30
2023-01-18T16:30:30.632Z,17.30
2023-01-18T16:33:10.228Z,17.30
2023-01-18T16:35:42.247Z,17.30
2023-01-18T16:38:15.843Z,17.40
2023-01-18T16:40:47.204Z,17.50
2023-01-18T16:43:22.003Z,17.50
2023-01-18T16:45:53.077Z,17.60
2023-01-18T16:50:53.159Z,17.60
2023-01-18T16:53:22.486Z,17.70
2023-01-18T16:55:51.454Z,17.80
2023-01-18T16:58:21.610Z,17.80
2023-01-18T17:01:10.827Z,17.90
2023-01-18T17:03:39.787Z,17.80
2023-01-18T17:06:17.974Z,17.80
2023-01-18T17:08:46.667Z,17.80
2023-01-18T17:11:15.607Z,17.80
2023-01-18T17:13:45.130Z,17.70
2023-01-18T17:16:17.128Z,17.70
2023-01-18T17:18:46.726Z,17.70
2023-01-18T17:21:15.709Z,17.60
2023-01-18T17:23:45.487Z,17.60
2023-01-18T17:26:16.148Z,17.60
2023-01-18T17:28:46.199Z,17.50
2023-01-18T17:31:15.027Z,17.50
2023-01-18T17:33:43.970Z,17.50
2023-01-18T17:36:12.723Z,17.40
2023-01-18T17:38:41.238Z,17.40
2023-01-18T17:41:22.999Z,17.40
2023-01-18T17:43:55.535Z,17.40
2023-01-18T17:46:24.445Z,17.40
2023-01-18T17:48:53.082Z,17.40
2023-01-18T17:51:21.881Z,17.50
2023-01-18T17:53:50.432Z,17.50
2023-01-18T17:56:19.507Z,17.60
2023-01-18T17:58:49.017Z,17.70
2023-01-18T18:01:18.392Z,17.70
2023-01-18T18:03:49.159Z,17.80
2023-01-18T18:06:30.292Z,17.80
2023-01-18T18:09:02.973Z,17.90
2023-01-18T18:11:31.809Z,17.90
2023-01-18T18:14:02.270Z,17.80
2023-01-18T18:16:34.363Z,17.80
2023-01-18T18:19:07.127Z,17.80
2023-01-18T18:21:37.027Z,17.80
2023-01-18T18:24:07.337Z,17.80
2023-01-18T18:26:36.217Z,17.80
2023-01-18T18:29:04.907Z,17.80
2023-01-18T18:31:33.849Z,17.70
2023-01-18T18:34:02.527Z,17.70
2023-01-18T18:36:31.401Z,17.70
2023-01-18T18:39:06.097Z,17.70
2023-01-18T18:41:34.924Z,17.70
2023-01-18T18:44:03.359Z,17.60
2023-01-18T18:46:32.382Z,17.60
2023-01-18T18:49:00.912Z,17.50
2023-01-18T18:51:29.858Z,17.50
2023-01-18T18:53:58.375Z,17.50
2023-01-18T18:56:27.334Z,17.40
2023-01-18T18:58:57.220Z,17.40
2023-01-18T19:01:29.484Z,17.40
2023-01-18T19:03:58.984Z,17.30
2023-01-18T19:06:28.111Z,17.30
2023-01-18T19:08:57.639Z,17.30
2023-01-18T19:16:25.608Z,17.20
2023-01-18T19:18:54.071Z,17.20
2023-01-18T19:21:23.211Z,17.20
2023-01-18T19:23:51.778Z,17.30
2023-01-18T19:26:20.716Z,17.30
2023-01-18T19:28:49.263Z,17.40
2023-01-18T19:31:19.183Z,17.50
2023-01-18T19:36:17.165Z,17.60
2023-01-18T19:38:49.260Z,17.70
2023-01-18T19:46:22.588Z,17.80
2023-01-18T19:48:58.387Z,17.90
2023-01-18T20:19:17.649Z,17.90
2023-01-18T20:21:46.558Z,17.60
2023-01-18T20:24:16.389Z,17.60
2023-01-18T20:26:45.383Z,17.60
2023-01-18T20:29:13.987Z,17.50
2023-01-18T20:31:48.489Z,17.50
2023-01-18T20:34:19.225Z,17.50
2023-01-18T20:36:50.369Z,17.50
2023-01-18T20:39:19.369Z,17.60
2023-01-18T20:41:50.394Z,17.60
2023-01-18T20:44:18.922Z,17.60
2023-01-18T20:46:48.407Z,17.60
2023-01-18T20:49:22.455Z,17.70
2023-01-18T20:51:56.142Z,17.80
2023-01-18T20:54:24.654Z,17.90
2023-01-18T20:56:54.635Z,18.00
2023-01-18T23:39:43.083Z,18.00
2023-01-18T23:42:30.773Z,17.20
2023-01-18T23:45:19.162Z,17.20
2023-01-18T23:48:06.227Z,17.10
2023-01-18T23:58:39.610Z,17.20
